createdAt,value
2023-02-09T00:00:02.777Z,-3.48
2023-02-09T00:02:40.076Z,-3.47
2023-02-09T00:05:07.580Z,-3.51
2023-02-09T00:07:33.952Z,-3.52
2023-02-09T00:10:00.395Z,-3.53
2023-02-09T00:12:45.428Z,-3.51
2023-02-09T00:15:12.110Z,-3.41
2023-02-09T00:17:38.612Z,-3.33
2023-02-09T00:20:07.212Z,-3.45
2023-02-09T00:22:34.299Z,-3.50
2023-02-09T00:25:00.738Z,-3.50
2023-02-09T00:27:27.933Z,-3.42
2023-02-09T00:29:54.367Z,-3.40
2023-02-09T00:32:20.780Z,-3.37
2023-02-09T00:34:47.391Z,-3.34
2023-02-09T00:37:13.764Z,-3.40
2023-02-09T00:39:40.399Z,-3.40
2023-02-09T00:42:06.863Z,-3.40
2023-02-09T00:44:39.397Z,-3.44
2023-02-09T00:47:07.373Z,-3.48
2023-02-09T00:49:34.390Z,-3.54
2023-02-09T00:52:00.791Z,-3.59
2023-02-09T00:54:28.025Z,-3.64
2023-02-09T00:56:54.445Z,-3.70
2023-02-09T00:59:20.873Z,-3.69
2023-02-09T01:01:47.352Z,-3.69
2023-02-09T01:04:14.418Z,-3.63
2023-02-09T01:06:40.911Z,-3.65
2023-02-09T01:09:07.569Z,-3.67
2023-02-09T01:11:33.975Z,-3.73
2023-02-09T01:14:03.205Z,-3.73
2023-02-09T01:16:31.692Z,-3.74
2023-02-09T01:19:02.425Z,-3.67
2023-02-09T01:21:29.508Z,-3.70
2023-02-09T01:23:56.383Z,-3.69
2023-02-09T01:26:23.018Z,-3.69
2023-02-09T01:28:53.694Z,-3.74
2023-02-09T01:31:32.628Z,-3.76
2023-02-09T01:34:01.955Z,-3.74
2023-02-09T01:36:29.833Z,-3.65
2023-02-09T01:38:58.451Z,-3.65
2023-02-09T01:41:25.428Z,-3.74
2023-02-09T01:44:01.353Z,-3.81
2023-02-09T01:46:30.537Z,-3.84
2023-02-09T01:49:05.112Z,-3.84
2023-02-09T01:51:36.632Z,-3.89
2023-02-09T01:54:12.809Z,-3.90
2023-02-09T01:56:42.761Z,-3.88
2023-02-09T01:59:10.438Z,-3.93
2023-02-09T02:01:38.061Z,-3.99
2023-02-09T02:04:05.500Z,-4.01
2023-02-09T02:06:32.401Z,-4.04
2023-02-09T02:09:04.590Z,-3.80
2023-02-09T02:11:32.909Z,-3.67
2023-02-09T02:13:59.382Z,-3.37
2023-02-09T02:16:33.802Z,-3.27
2023-02-09T02:19:32.437Z,-3.28
2023-02-09T02:22:14.080Z,-3.37
2023-02-09T02:25:11.169Z,-3.35
2023-02-09T02:27:48.791Z,-3.32
2023-02-09T02:30:28.907Z,-3.23
2023-02-09T02:33:03.353Z,-3.20
2023-02-09T02:35:42.958Z,-3.17
2023-02-09T02:38:37.513Z,-2.97
2023-02-09T02:41:17.307Z,-2.84
2023-02-09T02:43:49.676Z,-2.87
2023-02-09T02:46:27.713Z,-2.86
2023-02-09T02:49:01.032Z,-2.97
2023-02-09T02:51:36.186Z,-3.10
2023-02-09T02:54:08.323Z,-3.01
2023-02-09T02:56:42.820Z,-2.79
2023-02-09T02:59:17.554Z,-2.80
2023-02-09T03:01:52.453Z,-2.81
2023-02-09T03:04:20.522Z,-2.61
2023-02-09T03:06:46.909Z,-2.62
2023-02-09T03:09:13.511Z,-2.53
2023-02-09T03:11:44.159Z,-2.51
2023-02-09T03:14:25.676Z,-2.49
2023-02-09T03:17:09.008Z,-2.50
2023-02-09T03:20:05.827Z,-2.54
2023-02-09T03:22:38.614Z,-2.55
2023-02-09T03:25:12.295Z,-2.67
2023-02-09T03:27:48.797Z,-2.74
2023-02-09T03:30:17.272Z,-2.80
2023-02-09T03:32:46.975Z,-2.83
2023-02-09T03:35:17.261Z,-2.88
2023-02-09T03:37:43.855Z,-2.84
2023-02-09T03:40:10.941Z,-2.68
2023-02-09T03:42:37.629Z,-2.61
2023-02-09T03:45:04.368Z,-2.55
2023-02-09T03:47:30.823Z,-2.52
2023-02-09T03:49:58.289Z,-2.55
2023-02-09T03:52:24.760Z,-2.50
2023-02-09T03:54:51.207Z,-2.53
2023-02-09T03:57:17.648Z,-2.56
2023-02-09T03:59:44.059Z,-2.51
2023-02-09T04:02:10.923Z,-2.51
2023-02-09T04:04:37.664Z,-2.42
2023-02-09T04:07:04.657Z,-2.46
2023-02-09T04:09:31.222Z,-2.55
2023-02-09T04:11:57.681Z,-2.59
2023-02-09T04:14:24.400Z,-2.59
2023-02-09T04:16:50.871Z,-2.67
2023-02-09T04:19:17.373Z,-2.73
2023-02-09T04:21:43.948Z,-2.74
2023-02-09T04:24:10.703Z,-2.66
2023-02-09T04:26:37.514Z,-2.66
2023-02-09T04:29:04.651Z,-2.61
2023-02-09T04:31:32.041Z,-2.64
2023-02-09T04:33:58.486Z,-2.64
2023-02-09T04:36:24.891Z,-2.67
2023-02-09T04:38:51.372Z,-2.57
2023-02-09T04:41:17.930Z,-2.65
2023-02-09T04:43:46.240Z,-2.68
2023-02-09T04:46:17.925Z,-2.78
2023-02-09T04:48:45.509Z,-2.90
2023-02-09T04:51:12.731Z,-3.03
2023-02-09T04:53:39.209Z,-3.18
2023-02-09T04:56:06.266Z,-3.23
2023-02-09T04:58:51.820Z,-3.21
2023-02-09T05:01:24.380Z,-3.14
2023-02-09T05:03:51.451Z,-3.10
2023-02-09T05:06:18.549Z,-3.15
2023-02-09T05:08:45.505Z,-3.11
2023-02-09T05:11:12.655Z,-3.09
2023-02-09T05:13:39.114Z,-3.09
2023-02-09T05:16:07.645Z,-3.03
2023-02-09T05:18:35.662Z,-3.02
2023-02-09T05:21:03.297Z,-2.88
2023-02-09T05:23:30.136Z,-2.88
2023-02-09T05:25:56.531Z,-2.91
2023-02-09T05:28:24.518Z,-2.86
2023-02-09T05:30:54.364Z,-2.87
2023-02-09T05:33:22.665Z,-2.89
2023-02-09T05:35:50.775Z,-2.88
2023-02-09T05:38:17.401Z,-2.91
2023-02-09T05:40:45.267Z,-2.80
2023-02-09T05:43:12.019Z,-2.65
2023-02-09T05:45:38.841Z,-2.66
2023-02-09T05:48:05.476Z,-2.62
2023-02-09T05:50:32.071Z,-2.56
2023-02-09T05:52:59.929Z,-2.59
2023-02-09T05:55:26.368Z,-2.52
2023-02-09T05:57:52.819Z,-2.49
2023-02-09T06:00:19.646Z,-2.59
2023-02-09T06:02:46.148Z,-2.59
2023-02-09T06:05:13.239Z,-2.53
2023-02-09T06:07:39.631Z,-2.57
2023-02-09T06:10:08.806Z,-2.62
2023-02-09T06:12:35.212Z,-2.60
2023-02-09T06:15:02.573Z,-2.60
2023-02-09T06:17:28.973Z,-2.63
2023-02-09T06:19:55.376Z,-2.64
2023-02-09T06:22:21.788Z,-2.67
2023-02-09T06:24:48.218Z,-2.73
2023-02-09T06:27:14.602Z,-2.77
2023-02-09T06:29:41.070Z,-2.73
2023-02-09T06:32:07.823Z,-2.75
2023-02-09T06:34:34.428Z,-2.77
2023-02-09T06:37:00.855Z,-2.74
2023-02-09T06:39:27.313Z,-2.75
2023-02-09T06:41:53.792Z,-2.72
2023-02-09T06:44:20.599Z,-2.59
2023-02-09T06:46:47.365Z,-2.57
2023-02-09T06:49:13.810Z,-2.50
2023-02-09T06:51:40.469Z,-2.50
2023-02-09T06:54:07.507Z,-2.49
2023-02-09T06:56:34.140Z,-2.49
2023-02-09T06:59:00.563Z,-2.53
2023-02-09T07:01:28.030Z,-2.58
2023-02-09T07:03:54.506Z,-2.46
2023-02-09T07:06:21.348Z,-2.49
2023-02-09T07:08:49.599Z,-2.50
2023-02-09T07:11:17.893Z,-2.45
2023-02-09T07:13:45.785Z,-2.48
2023-02-09T07:16:12.739Z,-2.44
2023-02-09T07:18:39.712Z,-2.37
2023-02-09T07:21:09.847Z,-2.37
2023-02-09T07:23:36.739Z,-2.36
2023-02-09T07:26:05.434Z,-2.29
2023-02-09T07:28:33.212Z,-2.31
2023-02-09T07:31:06.380Z,-2.27
2023-02-09T07:33:33.804Z,-2.00
2023-02-09T07:36:02.533Z,-2.08
2023-02-09T07:38:29.289Z,-2.08
2023-02-09T07:40:58.948Z,-2.15
2023-02-09T07:43:25.582Z,-2.01
2023-02-09T07:45:52.137Z,-2.06
2023-02-09T07:48:18.548Z,-2.03
2023-02-09T07:50:49.774Z,-2.01
2023-02-09T07:53:16.927Z,-1.97
2023-02-09T07:55:43.805Z,-2.00
2023-02-09T07:58:10.604Z,-1.95
2023-02-09T08:00:37.084Z,-1.86
2023-02-09T08:03:04.397Z,-1.85
2023-02-09T08:05:36.212Z,-1.73
2023-02-09T08:08:02.752Z,-1.74
2023-02-09T08:10:29.276Z,-1.68
2023-02-09T08:13:02.034Z,-1.56
2023-02-09T08:15:49.393Z,-1.69
2023-02-09T08:18:19.769Z,-1.69
2023-02-09T08:20:46.761Z,-1.62
2023-02-09T08:23:22.664Z,-1.51
2023-02-09T08:25:51.471Z,-1.47
2023-02-09T08:28:19.627Z,-1.48
2023-02-09T08:30:47.620Z,-1.50
2023-02-09T08:33:14.359Z,-1.48
2023-02-09T08:35:41.218Z,-1.45
2023-02-09T08:38:07.882Z,-1.39
2023-02-09T08:40:40.273Z,-1.28
2023-02-09T08:43:07.789Z,-1.12
2023-02-09T08:45:38.865Z,-1.17
2023-02-09T08:48:11.522Z,-1.12
2023-02-09T08:50:39.462Z,-1.15
2023-02-09T08:53:07.012Z,-1.13
2023-02-09T08:55:34.252Z,-1.07
2023-02-09T08:58:00.712Z,-0.94
2023-02-09T09:00:29.912Z,-0.90
2023-02-09T09:02:57.014Z,-0.90
2023-02-09T09:05:23.452Z,-0.66
2023-02-09T09:07:49.847Z,-0.69
2023-02-09T09:10:16.753Z,-0.73
2023-02-09T09:12:43.637Z,-0.73
2023-02-09T09:15:10.372Z,-0.54
2023-02-09T09:17:36.927Z,-0.40
2023-02-09T09:20:03.701Z,-0.45
2023-02-09T09:22:30.084Z,-0.48
2023-02-09T09:24:56.589Z,-0.43
2023-02-09T09:27:24.448Z,-0.39
2023-02-09T09:29:51.939Z,-0.30
2023-02-09T09:32:24.455Z,-0.23
2023-02-09T09:34:56.144Z,-0.25
2023-02-09T09:37:23.372Z,-0.06
2023-02-09T09:39:50.219Z,-0.13
2023-02-09T09:42:43.116Z,-0.06
2023-02-09T09:45:15.867Z,-0.03
2023-02-09T09:47:44.023Z,0.01
2023-02-09T09:50:21.394Z,0.10
2023-02-09T09:52:55.329Z,0.17
2023-02-09T09:55:28.116Z,0.25
2023-02-09T09:57:56.475Z,0.30
2023-02-09T10:00:27.661Z,0.43
2023-02-09T10:02:54.138Z,0.54
2023-02-09T10:05:28.127Z,0.57
2023-02-09T10:08:05.340Z,0.62
2023-02-09T10:10:43.518Z,0.74
2023-02-09T10:13:21.007Z,0.78
2023-02-09T10:15:49.807Z,0.87
2023-02-09T10:18:17.295Z,0.86
2023-02-09T10:21:01.352Z,1.11
2023-02-09T10:24:00.079Z,1.24
2023-02-09T10:26:32.257Z,1.37
2023-02-09T10:29:07.831Z,1.32
2023-02-09T10:31:40.193Z,1.44
2023-02-09T10:34:20.218Z,1.53
2023-02-09T10:37:02.904Z,1.42
2023-02-09T10:39:35.346Z,1.52
2023-02-09T10:42:18.005Z,1.48
2023-02-09T10:44:49.601Z,1.62
2023-02-09T10:47:18.826Z,1.66
2023-02-09T10:49:55.379Z,1.73
2023-02-09T10:52:26.195Z,1.59
2023-02-09T10:54:59.808Z,1.63
2023-02-09T10:57:34.033Z,1.62
2023-02-09T11:00:21.797Z,1.66
2023-02-09T11:02:48.140Z,1.65
2023-02-09T11:05:20.644Z,1.80
2023-02-09T11:08:27.722Z,1.76
2023-02-09T11:11:28.061Z,1.78
2023-02-09T11:13:54.660Z,1.89
2023-02-09T11:16:37.954Z,1.94
2023-02-09T11:19:22.534Z,1.92
2023-02-09T11:22:07.730Z,2.07
2023-02-09T11:24:46.310Z,2.02
2023-02-09T11:27:23.826Z,2.20
2023-02-09T11:29:58.268Z,2.22
2023-02-09T11:32:37.082Z,2.23
2023-02-09T11:35:09.469Z,2.24
2023-02-09T11:37:49.139Z,2.29
2023-02-09T11:40:15.500Z,2.31
2023-02-09T11:43:05.834Z,2.29
2023-02-09T11:45:55.155Z,2.37
2023-02-09T11:48:26.247Z,2.52
2023-02-09T11:50:57.612Z,2.55
2023-02-09T11:53:48.654Z,2.59
2023-02-09T11:56:21.280Z,2.64
2023-02-09T11:58:56.938Z,2.64
2023-02-09T12:01:32.481Z,2.85
2023-02-09T12:04:16.803Z,2.85
2023-02-09T12:06:49.640Z,2.97
2023-02-09T12:09:31.467Z,2.97
2023-02-09T12:12:38.402Z,2.97
2023-02-09T12:15:16.637Z,3.05
2023-02-09T12:17:51.195Z,3.25
2023-02-09T12:20:30.868Z,3.24
2023-02-09T12:23:15.870Z,3.27
2023-02-09T12:25:51.507Z,3.39
2023-02-09T12:28:24.365Z,3.31
2023-02-09T12:30:51.092Z,3.40
2023-02-09T12:33:23.333Z,3.32
2023-02-09T12:36:08.081Z,3.30
2023-02-09T12:39:04.586Z,3.33
2023-02-09T12:41:51.242Z,3.39
2023-02-09T12:44:18.392Z,3.26
2023-02-09T12:46:44.954Z,3.37
2023-02-09T12:49:11.617Z,3.41
2023-02-09T12:51:50.297Z,3.37
2023-02-09T12:54:48.322Z,3.44
2023-02-09T12:57:14.685Z,3.41
2023-02-09T13:00:04.652Z,3.44
2023-02-09T13:02:37.283Z,3.46
2023-02-09T13:05:15.192Z,3.51
2023-02-09T13:08:05.953Z,3.40
2023-02-09T13:10:51.663Z,3.39
2023-02-09T13:13:34.016Z,3.56
2023-02-09T13:16:00.344Z,3.62
2023-02-09T13:19:00.623Z,3.55
2023-02-09T13:21:42.611Z,3.59
2023-02-09T13:24:16.924Z,3.70
2023-02-09T13:26:53.667Z,3.59
2023-02-09T13:29:22.892Z,3.61
2023-02-09T13:32:14.809Z,3.61
2023-02-09T13:34:53.260Z,3.67
2023-02-09T13:37:25.506Z,3.63
2023-02-09T13:39:57.895Z,3.58
2023-02-09T13:42:26.749Z,3.62
2023-02-09T13:44:56.076Z,3.57
2023-02-09T13:47:23.912Z,3.51
2023-02-09T13:50:03.598Z,3.50
2023-02-09T13:52:38.814Z,3.47
2023-02-09T13:55:13.470Z,3.42
2023-02-09T13:57:43.369Z,3.46
2023-02-09T14:00:25.846Z,3.54
2023-02-09T14:03:02.267Z,3.53
2023-02-09T14:06:24.198Z,3.50
2023-02-09T14:08:52.129Z,3.55
2023-02-09T14:11:41.497Z,3.58
2023-02-09T14:14:14.952Z,3.56
2023-02-09T14:16:52.591Z,3.55
2023-02-09T14:19:31.254Z,3.49
2023-02-09T14:21:57.729Z,3.50
2023-02-09T14:24:25.978Z,3.40
2023-02-09T14:27:16.406Z,3.38
2023-02-09T14:29:47.099Z,3.34
2023-02-09T14:32:33.311Z,3.26
2023-02-09T14:35:20.046Z,3.20
2023-02-09T14:37:47.952Z,3.18
2023-02-09T14:40:23.757Z,3.19
2023-02-09T14:43:09.320Z,3.14
2023-02-09T14:45:48.858Z,3.07
2023-02-09T14:48:19.441Z,3.11
2023-02-09T14:50:47.835Z,3.07
2023-02-09T14:53:16.122Z,3.06
2023-02-09T14:55:44.554Z,3.08
2023-02-09T14:58:24.639Z,3.08
2023-02-09T15:00:52.509Z,3.00
2023-02-09T15:03:19.504Z,2.96
2023-02-09T15:05:48.520Z,2.95
2023-02-09T15:08:19.943Z,2.92
2023-02-09T15:10:53.358Z,2.87
2023-02-09T15:13:21.240Z,2.81
2023-02-09T15:15:47.986Z,2.74
2023-02-09T15:18:19.957Z,2.80
2023-02-09T15:20:46.900Z,2.68
2023-02-09T15:23:13.673Z,2.59
2023-02-09T15:25:41.260Z,2.68
2023-02-09T15:28:34.296Z,2.63
2023-02-09T15:31:00.803Z,2.50
2023-02-09T15:33:28.615Z,2.56
2023-02-09T15:35:58.947Z,2.40
2023-02-09T15:38:27.814Z,2.39
2023-02-09T15:41:12.746Z,2.36
2023-02-09T15:43:57.902Z,2.25
2023-02-09T15:46:42.805Z,2.19
2023-02-09T15:49:09.406Z,2.20
2023-02-09T15:51:38.566Z,2.16
2023-02-09T15:54:14.358Z,2.30
2023-02-09T15:56:41.204Z,2.16
2023-02-09T15:59:16.069Z,2.19
2023-02-09T16:01:42.700Z,2.19
2023-02-09T16:04:14.184Z,2.18
2023-02-09T16:06:53.729Z,2.03
2023-02-09T16:09:28.653Z,1.94
2023-02-09T16:11:55.254Z,1.94
2023-02-09T16:14:24.307Z,2.08
2023-02-09T16:16:51.361Z,1.89
2023-02-09T16:19:17.986Z,1.85
2023-02-09T16:21:48.906Z,1.88
2023-02-09T16:24:30.154Z,1.77
2023-02-09T16:27:02.666Z,1.81
2023-02-09T16:29:29.128Z,1.74
2023-02-09T16:31:55.672Z,1.78
2023-02-09T16:34:22.110Z,1.81
2023-02-09T16:36:49.053Z,1.87
2023-02-09T16:39:20.771Z,1.95
2023-02-09T16:41:48.123Z,1.87
2023-02-09T16:44:19.599Z,1.92
2023-02-09T16:46:48.620Z,1.90
2023-02-09T16:49:31.376Z,1.80
2023-02-09T16:52:02.619Z,1.84
2023-02-09T16:54:33.303Z,1.80
2023-02-09T16:57:00.851Z,1.88
2023-02-09T16:59:27.294Z,1.85
2023-02-09T17:01:53.757Z,1.84
2023-02-09T17:04:20.238Z,1.79
2023-02-09T17:06:52.645Z,1.87
2023-02-09T17:09:19.096Z,1.85
2023-02-09T17:11:45.695Z,1.79
2023-02-09T17:14:12.661Z,1.83
2023-02-09T17:16:43.464Z,1.90
2023-02-09T17:19:15.129Z,1.94
2023-02-09T17:21:42.337Z,1.85
2023-02-09T17:24:17.178Z,1.80
2023-02-09T17:26:44.479Z,1.86
2023-02-09T17:29:11.373Z,1.80
2023-02-09T17:31:52.376Z,1.92
2023-02-09T17:34:20.523Z,1.91
2023-02-09T17:36:47.034Z,1.87
2023-02-09T17:39:14.180Z,1.97
2023-02-09T17:41:45.429Z,1.91
2023-02-09T17:44:29.081Z,1.82
2023-02-09T17:47:05.202Z,1.82
2023-02-09T17:49:32.100Z,1.93
2023-02-09T17:51:58.494Z,1.84
2023-02-09T17:54:25.201Z,1.87
2023-02-09T17:56:51.613Z,1.97
2023-02-09T17:59:20.089Z,2.00
2023-02-09T18:01:50.022Z,1.93
2023-02-09T18:04:23.192Z,1.99
2023-02-09T18:06:49.694Z,1.87
2023-02-09T18:09:16.253Z,1.89
2023-02-09T18:11:52.154Z,1.84
2023-02-09T18:14:20.417Z,2.06
2023-02-09T18:16:47.727Z,2.02
2023-02-09T18:19:15.733Z,1.97
2023-02-09T18:21:57.359Z,2.02
2023-02-09T18:24:25.892Z,2.02
2023-02-09T18:26:52.355Z,2.08
2023-02-09T18:29:22.795Z,2.10
2023-02-09T18:31:50.025Z,2.10
2023-02-09T18:34:16.859Z,2.22
2023-02-09T18:36:43.924Z,2.23
2023-02-09T18:39:10.647Z,2.16
2023-02-09T18:41:37.315Z,2.32
2023-02-09T18:44:03.747Z,2.27
2023-02-09T18:46:30.328Z,2.19
2023-02-09T18:48:56.940Z,2.37
2023-02-09T18:51:23.480Z,2.36
2023-02-09T18:53:51.122Z,2.32
2023-02-09T18:56:19.785Z,2.40
2023-02-09T18:58:47.850Z,2.50
2023-02-09T19:01:14.334Z,2.53
2023-02-09T19:03:41.471Z,2.42
2023-02-09T19:06:12.408Z,2.43
2023-02-09T19:08:39.711Z,2.55
2023-02-09T19:11:07.180Z,2.63
2023-02-09T19:13:34.067Z,2.56
2023-02-09T19:16:00.795Z,2.54
2023-02-09T19:18:27.697Z,2.54
2023-02-09T19:20:55.629Z,2.55
2023-02-09T19:23:24.075Z,2.62
2023-02-09T19:26:00.983Z,2.47
2023-02-09T19:28:27.497Z,2.62
2023-02-09T19:30:54.016Z,2.50
2023-02-09T19:33:23.048Z,2.58
2023-02-09T19:35:59.806Z,2.46
2023-02-09T19:38:26.847Z,2.42
2023-02-09T19:41:08.527Z,2.38
2023-02-09T19:43:36.650Z,2.36
2023-02-09T19:46:04.435Z,2.23
2023-02-09T19:48:31.463Z,2.09
2023-02-09T19:50:59.243Z,2.06
2023-02-09T19:53:26.729Z,2.08
2023-02-09T19:55:53.972Z,1.97
2023-02-09T19:58:23.714Z,2.02
2023-02-09T20:00:51.898Z,1.90
2023-02-09T20:03:18.644Z,1.97
2023-02-09T20:05:45.836Z,2.02
2023-02-09T20:08:16.355Z,1.97
2023-02-09T20:10:44.306Z,1.93
2023-02-09T20:13:12.957Z,2.00
2023-02-09T20:15:43.913Z,1.92
2023-02-09T20:18:13.525Z,2.02
2023-02-09T20:20:43.112Z,1.98
2023-02-09T20:23:10.108Z,1.99
2023-02-09T20:25:39.660Z,2.03
2023-02-09T20:28:06.316Z,1.91
2023-02-09T20:30:32.880Z,1.98
2023-02-09T20:32:59.325Z,2.00
2023-02-09T20:35:26.988Z,1.91
2023-02-09T20:37:53.756Z,1.98
2023-02-09T20:40:20.257Z,2.01
2023-02-09T20:43:05.371Z,2.04
2023-02-09T20:45:50.336Z,1.95
2023-02-09T20:48:17.388Z,2.00
2023-02-09T20:50:45.462Z,2.05
2023-02-09T20:53:12.732Z,2.13
2023-02-09T20:55:39.754Z,1.98
2023-02-09T20:58:06.626Z,1.89
2023-02-09T21:00:35.159Z,2.03
2023-02-09T21:03:01.980Z,1.98
2023-02-09T21:05:28.408Z,1.93
2023-02-09T21:07:55.900Z,1.99
2023-02-09T21:10:22.481Z,1.94
2023-02-09T21:12:48.922Z,2.06
2023-02-09T21:15:15.743Z,1.96
2023-02-09T21:17:47.650Z,1.93
2023-02-09T21:20:16.186Z,1.98
2023-02-09T21:22:42.728Z,2.02
2023-02-09T21:25:10.045Z,1.99
2023-02-09T21:27:37.131Z,1.94
2023-02-09T21:30:04.951Z,1.95
2023-02-09T21:32:34.764Z,1.99
2023-02-09T21:35:02.058Z,2.01
2023-02-09T21:37:32.213Z,1.92
2023-02-09T21:40:02.769Z,1.89
2023-02-09T21:42:30.627Z,1.94
2023-02-09T21:44:57.943Z,1.99
2023-02-09T21:47:27.882Z,1.85
2023-02-09T21:49:54.386Z,1.93
2023-02-09T21:52:21.033Z,1.90
2023-02-09T21:54:47.575Z,1.80
2023-02-09T21:57:14.271Z,1.93
2023-02-09T21:59:40.762Z,1.82
2023-02-09T22:02:07.956Z,1.80
2023-02-09T22:04:34.495Z,1.91
2023-02-09T22:07:00.909Z,1.80
2023-02-09T22:09:27.980Z,1.80
2023-02-09T22:11:54.478Z,1.86
2023-02-09T22:14:20.894Z,1.80
2023-02-09T22:16:47.330Z,1.86
2023-02-09T22:19:14.133Z,1.94
2023-02-09T22:21:40.600Z,1.78
2023-02-09T22:24:07.373Z,1.73
2023-02-09T22:26:33.837Z,1.75
2023-02-09T22:29:00.368Z,1.80
2023-02-09T22:31:26.811Z,1.76
2023-02-09T22:33:54.033Z,1.88
2023-02-09T22:36:21.761Z,1.79
2023-02-09T22:38:48.183Z,1.87
2023-02-09T22:41:23.464Z,1.85
2023-02-09T22:44:02.722Z,1.79
2023-02-09T22:46:32.824Z,1.88
2023-02-09T22:49:02.700Z,1.77
2023-02-09T22:51:31.082Z,1.75
2023-02-09T22:53:59.171Z,1.89
2023-02-09T22:56:27.347Z,1.79
2023-02-09T22:58:54.826Z,1.72
2023-02-09T23:01:21.616Z,1.77
2023-02-09T23:03:48.769Z,1.83
2023-02-09T23:06:18.091Z,1.99
2023-02-09T23:08:45.428Z,2.00
2023-02-09T23:11:15.093Z,1.90
2023-02-09T23:13:42.456Z,1.97
2023-02-09T23:16:22.558Z,1.94
2023-02-09T23:18:52.673Z,1.91
2023-02-09T23:21:21.703Z,1.90
2023-02-09T23:23:48.332Z,1.92
2023-02-09T23:26:16.416Z,1.91
2023-02-09T23:28:43.103Z,1.89
2023-02-09T23:31:17.304Z,1.89
2023-02-09T23:33:44.822Z,1.99
2023-02-09T23:36:22.834Z,2.00
2023-02-09T23:38:56.855Z,1.87
2023-02-09T23:41:24.161Z,1.85
2023-02-09T23:43:51.653Z,1.93
2023-02-09T23:46:20.951Z,1.82
2023-02-09T23:48:47.957Z,1.88
2023-02-09T23:51:20.892Z,1.88
2023-02-09T23:53:48.047Z,1.83
2023-02-09T23:56:16.082Z,1.96
2023-02-09T23:58:44.699Z,1.88
